createdAt,value
2022-09-21T00:04:19.856Z,7.55
2022-09-21T00:09:51.621Z,7.57
2022-09-21T00:15:23.444Z,7.61
2022-09-21T00:20:55.078Z,7.67
2022-09-21T00:26:26.817Z,7.75
2022-09-21T00:31:58.210Z,7.84
2022-09-21T00:42:58.940Z,7.98
2022-09-21T00:48:30.599Z,8.02
2022-09-21T00:54:01.986Z,8.04
2022-09-21T00:59:33.875Z,8.05
2022-09-21T01:05:05.568Z,8.05
2022-09-21T01:07:18.084Z,7.65
2022-09-21T01:12:49.623Z,7.83
2022-09-21T01:18:20.853Z,7.91
2022-09-21T01:23:52.267Z,7.92
2022-09-21T01:29:23.823Z,7.91
2022-09-21T01:34:55.449Z,7.85
2022-09-21T01:40:29.104Z,7.78
2022-09-21T01:45:58.558Z,7.69
2022-09-21T01:51:29.750Z,7.61
2022-09-21T01:57:01.084Z,7.52
2022-09-21T02:02:32.577Z,7.43
2022-09-21T02:08:04.243Z,7.34
2022-09-21T02:13:36.371Z,7.26
2022-09-21T02:19:08.124Z,7.17
2022-09-21T02:24:39.329Z,7.07
2022-09-21T02:30:10.618Z,6.98
2022-09-21T02:35:42.533Z,6.89
2022-09-21T02:41:14.203Z,6.80
2022-09-21T02:46:45.823Z,6.72
2022-09-21T02:52:17.174Z,6.65
2022-09-21T02:57:48.481Z,6.57
2022-09-21T03:03:19.842Z,6.50
2022-09-21T03:08:51.156Z,6.44
2022-09-21T03:14:28.355Z,6.38
2022-09-21T03:19:59.675Z,6.33
2022-09-21T03:25:31.026Z,6.26
2022-09-21T03:31:02.841Z,6.20
2022-09-21T03:36:34.453Z,6.14
2022-09-21T03:42:06.325Z,6.09
2022-09-21T03:47:38.023Z,6.03
2022-09-21T03:53:09.143Z,5.98
2022-09-21T03:58:40.691Z,5.92
2022-09-21T04:04:12.407Z,5.87
2022-09-21T04:09:43.748Z,5.83
2022-09-21T04:15:15.611Z,5.79
2022-09-21T04:20:47.340Z,5.75
2022-09-21T04:26:18.998Z,5.71
2022-09-21T04:31:50.908Z,5.66
2022-09-21T04:37:22.636Z,5.62
2022-09-21T04:48:23.438Z,5.51
2022-09-21T04:53:55.293Z,5.46
2022-09-21T04:59:27.098Z,5.42
2022-09-21T05:04:58.706Z,5.38
2022-09-21T05:10:30.357Z,5.35
2022-09-21T05:16:02.261Z,5.34
2022-09-21T05:21:33.892Z,5.49
2022-09-21T05:32:34.766Z,6.56
2022-09-21T05:38:06.417Z,7.36
2022-09-21T05:43:38.149Z,8.28
2022-09-21T05:54:38.879Z,10.34
2022-09-21T06:00:10.653Z,11.26
2022-09-21T06:05:42.471Z,12.15
2022-09-21T06:11:14.276Z,12.96
2022-09-21T06:16:45.978Z,13.66
2022-09-21T06:22:17.744Z,14.31
2022-09-21T06:27:49.477Z,14.82
2022-09-21T06:33:20.807Z,15.22
2022-09-21T06:38:52.614Z,15.64
2022-09-21T06:44:24.227Z,16.15
2022-09-21T06:49:55.650Z,16.59
2022-09-21T06:55:27.027Z,16.95
2022-09-21T07:00:58.613Z,17.32
2022-09-21T07:06:30.838Z,17.49
2022-09-21T07:12:02.492Z,17.83
2022-09-21T07:17:34.638Z,18.25
2022-09-21T07:25:25.857Z,18.93
2022-09-21T07:30:57.284Z,19.14
2022-09-21T07:36:28.634Z,19.37
2022-09-21T07:42:00.056Z,19.09
2022-09-21T07:47:31.272Z,18.69
2022-09-21T07:58:32.130Z,18.64
2022-09-21T08:04:03.458Z,18.47
2022-09-21T08:09:34.935Z,17.98
2022-09-21T08:15:07.622Z,17.46
2022-09-21T08:26:11.558Z,16.76
2022-09-21T08:37:14.288Z,16.77
2022-09-21T08:42:50.116Z,16.96
2022-09-21T08:48:17.224Z,17.10
2022-09-21T08:53:48.542Z,17.11
2022-09-21T08:59:19.888Z,16.89
2022-09-21T09:04:51.202Z,16.74
2022-09-21T09:10:22.549Z,16.60
2022-09-21T09:15:53.847Z,16.22
2022-09-21T09:21:31.448Z,15.82
2022-09-21T09:29:09.171Z,14.15
2022-09-21T09:34:40.616Z,14.29
2022-09-21T09:40:11.904Z,14.36
2022-09-21T09:45:43.113Z,14.23
2022-09-21T09:51:14.563Z,14.06
2022-09-21T09:56:45.764Z,14.03
2022-09-21T10:02:17.098Z,14.05
2022-09-21T10:07:48.501Z,14.00
2022-09-21T10:13:19.638Z,14.04
2022-09-21T10:18:51.289Z,14.17
2022-09-21T10:24:22.742Z,14.30
2022-09-21T10:29:54.121Z,14.49
2022-09-21T10:35:25.437Z,14.61
2022-09-21T10:40:56.739Z,14.60
2022-09-21T10:46:28.067Z,14.63
2022-09-21T10:51:59.316Z,14.73
2022-09-21T10:57:30.839Z,14.79
2022-09-21T11:03:02.501Z,14.75
2022-09-21T11:08:33.663Z,14.71
2022-09-21T11:14:05.146Z,14.69
2022-09-21T11:19:36.750Z,14.69
2022-09-21T11:25:08.165Z,14.75
2022-09-21T11:30:39.656Z,14.90
2022-09-21T11:36:11.219Z,15.04
2022-09-21T11:41:42.284Z,15.13
2022-09-21T11:47:13.849Z,15.22
2022-09-21T11:52:45.213Z,15.25
2022-09-21T11:58:16.604Z,15.20
2022-09-21T12:03:48.060Z,15.18
2022-09-21T12:09:19.623Z,15.18
2022-09-21T12:14:50.840Z,15.19
2022-09-21T12:20:22.392Z,15.15
2022-09-21T12:25:55.733Z,15.07
2022-09-21T12:31:27.138Z,15.05
2022-09-21T12:36:58.729Z,14.95
2022-09-21T12:42:30.188Z,14.85
2022-09-21T12:48:01.441Z,14.84
2022-09-21T12:53:32.959Z,14.79
2022-09-21T12:59:04.552Z,14.76
2022-09-21T13:04:35.687Z,14.75
2022-09-21T13:10:07.171Z,14.71
2022-09-21T13:15:38.429Z,14.78
2022-09-21T13:21:09.862Z,14.91
2022-09-21T13:26:40.975Z,15.01
2022-09-21T13:32:12.531Z,15.07
2022-09-21T13:37:43.779Z,15.06
2022-09-21T13:48:48.786Z,15.11
2022-09-21T13:54:20.022Z,15.23
2022-09-21T14:05:22.564Z,15.34
2022-09-21T14:10:53.800Z,15.28
2022-09-21T14:16:25.785Z,15.27
2022-09-21T14:21:57.928Z,15.28
2022-09-21T14:27:29.959Z,15.30
2022-09-21T14:33:01.709Z,15.37
2022-09-21T14:38:33.388Z,15.43
2022-09-21T14:44:05.228Z,15.48
2022-09-21T14:55:05.858Z,15.55
2022-09-21T15:00:37.197Z,15.52
2022-09-21T15:06:08.671Z,15.48
2022-09-21T15:17:09.524Z,15.43
2022-09-21T15:22:40.872Z,15.45
2022-09-21T15:33:41.617Z,15.49
2022-09-21T15:39:13.163Z,15.30
2022-09-21T15:44:44.814Z,15.10
2022-09-21T15:50:16.171Z,14.93
2022-09-21T15:55:47.975Z,14.84
2022-09-21T16:01:19.891Z,14.81
2022-09-21T16:06:51.065Z,14.76
2022-09-21T16:12:22.949Z,14.67
2022-09-21T16:23:23.819Z,14.50
2022-09-21T16:31:16.188Z,13.89
2022-09-21T16:36:47.557Z,14.02
2022-09-21T16:42:19.071Z,14.05
2022-09-21T16:47:50.420Z,14.01
2022-09-21T16:53:21.715Z,13.93
2022-09-21T16:58:53.008Z,13.82
2022-09-21T17:09:53.851Z,13.60
2022-09-21T17:15:25.199Z,13.48
2022-09-21T17:20:56.662Z,13.36
2022-09-21T17:26:28.419Z,13.25
2022-09-21T17:34:19.805Z,12.41
2022-09-21T17:39:51.266Z,12.54
2022-09-21T17:45:22.840Z,12.51
2022-09-21T17:50:54.250Z,12.42
2022-09-21T17:56:25.754Z,12.33
2022-09-21T18:01:57.667Z,12.24
2022-09-21T18:07:29.104Z,12.14
2022-09-21T18:13:00.554Z,12.02
2022-09-21T18:18:32.199Z,11.90
2022-09-21T18:24:03.597Z,11.79
2022-09-21T18:29:40.035Z,11.65
2022-09-21T18:35:07.360Z,11.51
2022-09-21T18:40:39.007Z,11.38
2022-09-21T18:46:11.074Z,11.27
2022-09-21T18:51:42.446Z,11.16
2022-09-21T18:57:13.813Z,11.00
2022-09-21T19:03:05.430Z,10.85
2022-09-21T19:08:17.235Z,10.72
2022-09-21T19:13:48.413Z,10.61
2022-09-21T19:19:19.859Z,10.52
2022-09-21T19:24:51.241Z,10.45
2022-09-21T19:30:28.424Z,10.35
2022-09-21T19:36:06.151Z,10.24
2022-09-21T19:41:37.717Z,10.15
2022-09-21T19:47:09.133Z,10.07
2022-09-21T19:52:43.481Z,9.98
2022-09-21T19:58:15.416Z,9.92
2022-09-21T20:03:47.122Z,9.83
2022-09-21T20:09:19.131Z,9.73
2022-09-21T20:14:52.768Z,9.63
2022-09-21T20:20:24.264Z,9.54
2022-09-21T20:25:56.170Z,9.45
2022-09-21T20:31:27.853Z,9.36
2022-09-21T20:37:00.405Z,9.29
2022-09-21T20:42:31.907Z,9.24
2022-09-21T20:48:03.659Z,9.19
2022-09-21T20:53:35.481Z,9.11
2022-09-21T20:59:07.037Z,9.03
2022-09-21T21:10:11.241Z,8.84
2022-09-21T21:12:32.928Z,8.29
2022-09-21T21:18:04.644Z,8.43
2022-09-21T21:23:36.723Z,8.46
2022-09-21T21:29:08.530Z,8.45
2022-09-21T21:34:40.092Z,8.40
2022-09-21T21:40:11.930Z,8.33
2022-09-21T21:45:43.261Z,8.26
2022-09-21T21:51:14.632Z,8.19
2022-09-21T21:56:46.139Z,8.12
2022-09-21T22:02:18.039Z,8.04
2022-09-21T22:13:21.493Z,7.91
2022-09-21T22:24:22.123Z,7.76
2022-09-21T22:29:53.688Z,7.69
2022-09-21T22:35:25.453Z,7.63
2022-09-21T22:40:57.368Z,7.57
2022-09-21T22:46:28.917Z,7.50
2022-09-21T22:52:00.444Z,7.44
2022-09-21T22:54:24.066Z,6.95
2022-09-21T22:59:55.634Z,7.13
2022-09-21T23:05:27.558Z,7.19
2022-09-21T23:10:59.304Z,7.21
2022-09-21T23:16:31.017Z,7.18
2022-09-21T23:22:02.343Z,7.14
2022-09-21T23:27:34.221Z,7.07
2022-09-21T23:33:06.061Z,6.98
2022-09-21T23:38:37.756Z,6.88
2022-09-21T23:44:09.957Z,6.78
2022-09-21T23:49:41.784Z,6.68
2022-09-21T23:55:13.277Z,6.59
